createdAt,value
2022-12-20T00:00:21.032Z,5.60
2022-12-20T00:02:22.828Z,5.65
2022-12-20T00:04:24.492Z,5.71
2022-12-20T00:06:26.785Z,5.70
2022-12-20T00:08:28.553Z,5.66
2022-12-20T00:10:30.221Z,5.63
2022-12-20T00:12:31.950Z,5.61
2022-12-20T00:14:33.610Z,5.61
2022-12-20T00:16:36.259Z,5.61
2022-12-20T00:18:39.859Z,5.67
2022-12-20T00:20:41.412Z,5.69
2022-12-20T00:22:45.088Z,5.83
2022-12-20T00:24:46.600Z,5.90
2022-12-20T00:26:51.177Z,5.88
2022-12-20T00:28:53.517Z,5.88
2022-12-20T00:30:58.414Z,5.85
2022-12-20T00:33:03.025Z,5.87
2022-12-20T00:35:05.097Z,5.93
2022-12-20T00:37:06.815Z,5.90
2022-12-20T00:39:12.108Z,5.89
2022-12-20T00:41:19.170Z,5.93
2022-12-20T00:43:21.013Z,5.90
2022-12-20T00:45:22.545Z,5.92
2022-12-20T00:47:24.176Z,5.88
2022-12-20T00:49:25.959Z,5.87
2022-12-20T00:51:29.662Z,5.85
2022-12-20T00:53:32.099Z,5.87
2022-12-20T00:55:33.737Z,5.93
2022-12-20T00:57:35.287Z,6.09
2022-12-20T00:59:37.196Z,6.01
2022-12-20T01:01:38.928Z,5.95
2022-12-20T01:03:40.748Z,5.96
2022-12-20T01:05:54.151Z,5.94
2022-12-20T01:07:58.615Z,5.92
2022-12-20T01:10:00.218Z,5.94
2022-12-20T01:12:02.004Z,5.98
2022-12-20T01:14:09.897Z,6.00
2022-12-20T01:16:16.648Z,6.00
2022-12-20T01:18:18.548Z,6.04
2022-12-20T01:20:20.432Z,6.05
2022-12-20T01:22:22.299Z,6.06
2022-12-20T01:24:24.318Z,6.05
2022-12-20T01:26:28.799Z,6.01
2022-12-20T01:28:35.169Z,6.02
2022-12-20T01:30:40.786Z,6.02
2022-12-20T01:32:42.425Z,6.07
2022-12-20T01:34:44.258Z,6.16
2022-12-20T01:36:47.511Z,6.18
2022-12-20T01:38:49.179Z,6.26
2022-12-20T01:40:51.138Z,6.26
2022-12-20T01:42:52.675Z,6.33
2022-12-20T01:44:59.637Z,6.32
2022-12-20T01:47:01.432Z,6.24
2022-12-20T01:49:32.139Z,6.24
2022-12-20T01:51:36.894Z,6.17
2022-12-20T01:53:39.253Z,6.23
2022-12-20T01:55:41.688Z,6.20
2022-12-20T01:58:10.590Z,6.18
2022-12-20T02:00:12.948Z,6.22
2022-12-20T02:02:18.306Z,6.22
2022-12-20T02:04:19.972Z,6.20
2022-12-20T02:06:28.336Z,6.19
2022-12-20T02:08:29.977Z,6.18
2022-12-20T02:10:42.327Z,6.15
2022-12-20T02:12:48.712Z,6.14
2022-12-20T02:15:15.584Z,6.11
2022-12-20T02:17:26.543Z,6.09
2022-12-20T02:19:51.305Z,6.09
2022-12-20T02:22:16.100Z,6.08
2022-12-20T02:24:38.766Z,6.09
2022-12-20T02:26:42.923Z,6.09
2022-12-20T02:29:11.820Z,6.15
2022-12-20T02:31:18.923Z,6.18
2022-12-20T02:33:22.719Z,6.17
2022-12-20T02:35:28.266Z,6.17
2022-12-20T02:37:30.187Z,6.24
2022-12-20T02:39:33.661Z,6.28
2022-12-20T02:41:42.638Z,6.29
2022-12-20T02:44:06.507Z,6.38
2022-12-20T02:46:10.404Z,6.39
2022-12-20T02:48:12.500Z,6.38
2022-12-20T02:50:18.943Z,6.32
2022-12-20T02:52:26.593Z,6.30
2022-12-20T02:54:29.977Z,6.26
2022-12-20T02:56:38.520Z,6.24
2022-12-20T02:58:52.186Z,6.27
2022-12-20T03:00:57.333Z,6.33
2022-12-20T03:03:18.543Z,6.31
2022-12-20T03:05:22.535Z,6.29
2022-12-20T03:07:24.734Z,6.28
2022-12-20T03:09:27.366Z,6.25
2022-12-20T03:11:29.116Z,6.21
2022-12-20T03:13:31.457Z,6.25
2022-12-20T03:15:41.116Z,6.26
2022-12-20T03:17:43.007Z,6.24
2022-12-20T03:19:44.626Z,6.20
2022-12-20T03:21:48.541Z,6.23
2022-12-20T03:23:50.268Z,6.22
2022-12-20T03:25:51.980Z,6.19
2022-12-20T03:28:05.136Z,6.26
2022-12-20T03:30:10.852Z,6.27
2022-12-20T03:32:12.943Z,6.27
2022-12-20T03:34:18.181Z,6.32
2022-12-20T03:36:24.257Z,6.27
2022-12-20T03:38:30.319Z,6.25
2022-12-20T03:40:32.137Z,6.21
2022-12-20T03:42:34.533Z,6.23
2022-12-20T03:44:37.968Z,6.21
2022-12-20T03:46:39.978Z,6.24
2022-12-20T03:48:41.844Z,6.24
2022-12-20T03:50:44.728Z,6.26
2022-12-20T03:52:46.627Z,6.26
2022-12-20T03:54:48.687Z,6.24
2022-12-20T03:56:58.876Z,6.19
2022-12-20T03:59:01.677Z,6.20
2022-12-20T04:01:24.321Z,6.20
2022-12-20T04:03:28.827Z,6.23
2022-12-20T04:05:30.931Z,6.18
2022-12-20T04:07:32.671Z,6.19
2022-12-20T04:09:34.537Z,6.18
2022-12-20T04:11:42.137Z,6.20
2022-12-20T04:13:50.153Z,6.20
2022-12-20T04:15:55.296Z,6.25
2022-12-20T04:18:04.192Z,6.24
2022-12-20T04:20:19.170Z,6.26
2022-12-20T04:22:29.586Z,6.21
2022-12-20T04:24:38.266Z,6.24
2022-12-20T04:26:49.607Z,6.22
2022-12-20T04:28:55.689Z,6.20
2022-12-20T04:30:58.221Z,6.18
2022-12-20T04:33:02.813Z,6.17
2022-12-20T04:35:10.541Z,6.17
2022-12-20T04:37:15.871Z,6.15
2022-12-20T04:39:25.250Z,6.14
2022-12-20T04:41:55.951Z,6.15
2022-12-20T04:43:58.879Z,6.17
2022-12-20T04:46:12.213Z,6.16
2022-12-20T04:48:54.524Z,6.17
2022-12-20T04:50:38.904Z,6.15
2022-12-20T04:52:59.442Z,6.15
2022-12-20T04:55:01.815Z,6.11
2022-12-20T04:57:06.824Z,6.12
2022-12-20T04:59:08.642Z,6.15
2022-12-20T05:01:14.322Z,6.14
2022-12-20T05:03:24.132Z,6.12
2022-12-20T05:05:29.057Z,6.14
2022-12-20T05:07:32.429Z,6.14
2022-12-20T05:09:38.361Z,6.15
2022-12-20T05:11:41.299Z,6.12
2022-12-20T05:13:43.989Z,6.13
2022-12-20T05:15:50.356Z,6.19
2022-12-20T05:17:59.426Z,6.15
2022-12-20T05:20:07.294Z,6.18
2022-12-20T05:22:29.512Z,6.16
2022-12-20T05:24:59.496Z,6.20
2022-12-20T05:27:07.443Z,6.16
2022-12-20T05:29:11.739Z,6.19
2022-12-20T05:31:13.642Z,6.20
2022-12-20T05:33:15.397Z,6.16
2022-12-20T05:35:22.816Z,6.16
2022-12-20T05:37:33.755Z,6.16
2022-12-20T05:39:42.890Z,6.14
2022-12-20T05:41:51.494Z,6.13
2022-12-20T05:43:54.619Z,6.14
2022-12-20T05:45:56.369Z,6.17
2022-12-20T05:48:07.773Z,6.21
2022-12-20T05:50:18.625Z,6.19
2022-12-20T05:52:39.585Z,6.15
2022-12-20T05:54:46.367Z,6.13
2022-12-20T05:56:52.927Z,6.10
2022-12-20T05:59:00.295Z,6.12
2022-12-20T06:01:04.265Z,6.12
2022-12-20T06:03:12.188Z,6.12
2022-12-20T06:05:13.888Z,6.13
2022-12-20T06:07:15.701Z,6.13
2022-12-20T06:09:20.450Z,6.10
2022-12-20T06:11:44.222Z,6.06
2022-12-20T06:13:50.321Z,6.05
2022-12-20T06:15:53.828Z,6.08
2022-12-20T06:17:56.369Z,6.12
2022-12-20T06:19:58.237Z,6.13
2022-12-20T06:22:03.831Z,6.10
2022-12-20T06:24:25.175Z,6.07
2022-12-20T06:26:27.707Z,6.08
2022-12-20T06:28:30.426Z,6.06
2022-12-20T06:30:34.225Z,6.06
2022-12-20T06:32:53.538Z,6.10
2022-12-20T06:34:57.359Z,6.14
2022-12-20T06:36:58.999Z,6.11
2022-12-20T06:39:09.598Z,6.17
2022-12-20T06:41:20.856Z,6.15
2022-12-20T06:43:22.767Z,6.20
2022-12-20T06:45:33.519Z,6.21
2022-12-20T06:47:38.209Z,6.26
2022-12-20T06:49:40.852Z,6.26
2022-12-20T06:51:51.083Z,6.30
2022-12-20T06:53:56.922Z,6.30
2022-12-20T06:55:58.942Z,6.39
2022-12-20T06:58:00.791Z,6.34
2022-12-20T07:00:03.420Z,6.26
2022-12-20T07:02:09.132Z,6.24
2022-12-20T07:04:10.801Z,6.22
2022-12-20T07:06:12.725Z,6.23
2022-12-20T07:08:17.218Z,6.21
2022-12-20T07:10:19.056Z,6.22
2022-12-20T07:12:21.353Z,6.23
2022-12-20T07:14:31.735Z,6.28
2022-12-20T07:16:36.566Z,6.35
2022-12-20T07:18:38.587Z,6.29
2022-12-20T07:20:40.782Z,6.29
2022-12-20T07:22:47.690Z,6.25
2022-12-20T07:24:50.347Z,6.28
2022-12-20T07:26:51.978Z,6.28
2022-12-20T07:28:53.550Z,6.26
2022-12-20T07:30:56.226Z,6.26
2022-12-20T07:32:58.572Z,6.25
2022-12-20T07:35:02.450Z,6.23
2022-12-20T07:37:08.622Z,6.27
2022-12-20T07:39:10.582Z,6.24
2022-12-20T07:41:18.429Z,6.22
2022-12-20T07:43:23.183Z,6.26
2022-12-20T07:45:25.015Z,6.25
2022-12-20T07:47:27.018Z,6.31
2022-12-20T07:49:30.040Z,6.26
2022-12-20T07:51:36.749Z,6.26
2022-12-20T07:53:43.675Z,6.30
2022-12-20T07:55:46.314Z,6.33
2022-12-20T07:57:56.743Z,6.36
2022-12-20T08:00:01.901Z,6.39
2022-12-20T08:02:18.820Z,6.36
2022-12-20T08:04:25.372Z,6.38
2022-12-20T08:06:27.281Z,6.39
2022-12-20T08:08:33.136Z,6.45
2022-12-20T08:10:36.174Z,6.40
2022-12-20T08:12:39.271Z,6.39
2022-12-20T08:14:41.187Z,6.41
2022-12-20T08:16:45.660Z,6.43
2022-12-20T08:18:50.303Z,6.46
2022-12-20T08:20:52.044Z,6.51
2022-12-20T08:22:53.735Z,6.56
2022-12-20T08:24:55.361Z,6.51
2022-12-20T08:26:57.994Z,6.45
2022-12-20T08:29:05.420Z,6.54
2022-12-20T08:31:09.401Z,6.57
2022-12-20T08:33:13.453Z,6.59
2022-12-20T08:35:15.223Z,6.61
2022-12-20T08:37:20.667Z,6.65
2022-12-20T08:39:22.274Z,6.64
2022-12-20T08:41:25.237Z,6.64
2022-12-20T08:43:26.886Z,6.59
2022-12-20T08:45:28.458Z,6.63
2022-12-20T08:47:30.673Z,6.63
2022-12-20T08:49:32.577Z,6.69
2022-12-20T08:51:34.447Z,6.68
2022-12-20T08:53:38.223Z,6.69
2022-12-20T08:55:40.488Z,6.71
2022-12-20T08:57:42.069Z,6.70
2022-12-20T08:59:43.651Z,6.70
2022-12-20T09:01:47.498Z,6.76
2022-12-20T09:03:49.826Z,6.86
2022-12-20T09:05:51.513Z,6.86
2022-12-20T09:07:56.943Z,6.82
2022-12-20T09:09:59.931Z,6.81
2022-12-20T09:12:01.690Z,6.84
2022-12-20T09:14:03.352Z,6.88
2022-12-20T09:16:07.072Z,6.92
2022-12-20T09:18:10.826Z,6.90
2022-12-20T09:20:12.690Z,6.96
2022-12-20T09:22:17.530Z,6.90
2022-12-20T09:24:19.386Z,6.92
2022-12-20T09:26:22.358Z,6.96
2022-12-20T09:28:24.355Z,6.94
2022-12-20T09:30:25.959Z,6.96
2022-12-20T09:32:27.541Z,6.99
2022-12-20T09:34:29.157Z,7.00
2022-12-20T09:36:30.902Z,6.95
2022-12-20T09:38:32.866Z,6.99
2022-12-20T09:40:37.573Z,7.05
2022-12-20T09:42:39.650Z,7.04
2022-12-20T09:44:55.037Z,7.10
2022-12-20T09:47:32.451Z,7.02
2022-12-20T09:49:39.330Z,7.04
2022-12-20T09:51:43.976Z,7.12
2022-12-20T09:53:48.449Z,7.17
2022-12-20T09:56:02.957Z,7.14
2022-12-20T09:58:15.622Z,7.21
2022-12-20T10:00:19.972Z,7.23
2022-12-20T10:02:55.666Z,7.23
2022-12-20T10:04:46.247Z,7.25
2022-12-20T10:07:26.775Z,7.32
2022-12-20T10:09:57.164Z,7.36
2022-12-20T10:12:15.890Z,7.36
2022-12-20T10:14:40.834Z,7.50
2022-12-20T10:16:47.841Z,7.59
2022-12-20T10:19:07.002Z,7.54
2022-12-20T10:21:23.680Z,7.52
2022-12-20T10:23:34.203Z,7.47
2022-12-20T10:25:36.364Z,7.55
2022-12-20T10:27:44.478Z,7.61
2022-12-20T10:29:48.228Z,7.56
2022-12-20T10:31:56.089Z,7.50
2022-12-20T10:33:58.591Z,7.53
2022-12-20T10:36:32.584Z,7.62
2022-12-20T10:38:45.193Z,7.59
2022-12-20T10:41:24.232Z,7.66
2022-12-20T10:43:26.878Z,7.62
2022-12-20T10:45:41.083Z,7.61
2022-12-20T10:47:45.679Z,7.71
2022-12-20T10:49:48.094Z,7.77
2022-12-20T10:51:53.949Z,7.79
2022-12-20T10:53:59.509Z,7.82
2022-12-20T10:56:20.535Z,7.80
2022-12-20T10:58:29.824Z,7.79
2022-12-20T11:00:32.707Z,7.80
2022-12-20T11:02:44.262Z,7.87
2022-12-20T11:05:01.110Z,7.93
2022-12-20T11:07:24.881Z,7.94
2022-12-20T11:09:30.339Z,8.02
2022-12-20T11:11:32.166Z,8.10
2022-12-20T11:13:33.735Z,8.01
2022-12-20T11:15:37.070Z,8.03
2022-12-20T11:17:48.877Z,8.02
2022-12-20T11:20:28.270Z,8.01
2022-12-20T11:23:05.429Z,8.15
2022-12-20T11:25:25.740Z,8.19
2022-12-20T11:27:49.873Z,8.17
2022-12-20T11:30:14.300Z,8.15
2022-12-20T11:32:37.046Z,8.12
2022-12-20T11:35:12.674Z,8.16
2022-12-20T11:37:28.038Z,8.18
2022-12-20T11:39:49.231Z,8.27
2022-12-20T11:42:14.781Z,8.29
2022-12-20T11:44:34.870Z,8.39
2022-12-20T11:46:47.875Z,8.46
2022-12-20T11:49:04.744Z,8.49
2022-12-20T11:51:29.824Z,8.54
2022-12-20T11:53:45.689Z,8.51
2022-12-20T11:55:52.179Z,8.57
2022-12-20T11:58:18.046Z,8.51
2022-12-20T12:00:22.715Z,8.51
2022-12-20T12:02:34.039Z,8.51
2022-12-20T12:05:05.236Z,8.51
2022-12-20T12:07:19.491Z,8.53
2022-12-20T12:09:31.137Z,8.64
2022-12-20T12:14:16.317Z,8.89
2022-12-20T12:16:27.056Z,8.94
2022-12-20T12:18:31.779Z,8.88
2022-12-20T12:20:46.735Z,8.88
2022-12-20T12:22:51.291Z,8.85
2022-12-20T12:24:58.129Z,8.79
2022-12-20T12:27:03.476Z,8.81
2022-12-20T12:29:09.790Z,8.89
2022-12-20T12:31:17.050Z,9.02
2022-12-20T12:33:38.900Z,9.00
2022-12-20T12:36:04.359Z,8.94
2022-12-20T12:38:43.497Z,8.90
2022-12-20T12:41:17.586Z,8.97
2022-12-20T12:43:40.622Z,9.07
2022-12-20T12:45:52.078Z,9.05
2022-12-20T12:47:58.494Z,9.06
2022-12-20T12:50:02.566Z,9.11
2022-12-20T12:52:05.773Z,9.06
2022-12-20T12:54:10.169Z,9.16
2022-12-20T12:56:46.810Z,9.16
2022-12-20T12:59:07.079Z,9.17
2022-12-20T13:01:11.600Z,9.25
2022-12-20T13:03:35.161Z,9.16
2022-12-20T13:05:37.342Z,9.14
2022-12-20T13:07:40.104Z,9.25
2022-12-20T13:09:43.028Z,9.36
2022-12-20T13:11:50.204Z,9.48
2022-12-20T13:14:15.553Z,9.45
2022-12-20T13:16:55.584Z,9.34
2022-12-20T13:19:06.341Z,9.29
2022-12-20T13:21:28.038Z,9.42
2022-12-20T13:23:30.472Z,9.38
2022-12-20T13:25:32.428Z,9.35
2022-12-20T13:27:39.411Z,9.30
2022-12-20T13:29:57.372Z,9.43
2022-12-20T13:31:59.120Z,9.50
2022-12-20T13:34:04.689Z,9.59
2022-12-20T13:36:12.126Z,9.63
2022-12-20T13:38:46.005Z,9.56
2022-12-20T13:41:02.554Z,9.57
2022-12-20T13:43:12.157Z,9.56
2022-12-20T13:45:15.501Z,9.44
2022-12-20T13:47:38.959Z,9.41
2022-12-20T13:49:46.001Z,9.39
2022-12-20T13:51:48.288Z,9.37
2022-12-20T13:53:58.526Z,9.50
2022-12-20T13:56:26.665Z,9.61
2022-12-20T13:58:34.382Z,9.64
2022-12-20T14:00:36.638Z,9.66
2022-12-20T14:02:42.686Z,9.66
2022-12-20T14:04:55.869Z,9.78
2022-12-20T14:07:01.834Z,9.72
2022-12-20T14:09:08.413Z,9.64
2022-12-20T14:11:13.792Z,9.48
2022-12-20T14:13:27.857Z,9.58
2022-12-20T14:15:38.531Z,9.56
2022-12-20T14:17:44.853Z,9.56
2022-12-20T14:19:46.782Z,9.49
2022-12-20T14:21:49.845Z,9.52
2022-12-20T14:23:57.022Z,9.58
2022-12-20T14:26:02.715Z,9.56
2022-12-20T14:28:19.974Z,9.61
2022-12-20T14:30:32.205Z,9.60
2022-12-20T14:32:33.939Z,9.58
2022-12-20T14:34:41.543Z,9.55
2022-12-20T14:36:49.211Z,9.49
2022-12-20T14:38:52.609Z,9.40
2022-12-20T14:40:57.701Z,9.37
2022-12-20T14:43:23.822Z,9.36
2022-12-20T14:45:28.021Z,9.38
2022-12-20T14:47:29.632Z,9.45
2022-12-20T14:49:33.911Z,9.40
2022-12-20T14:51:35.638Z,9.41
2022-12-20T14:53:40.110Z,9.41
2022-12-20T14:55:48.359Z,9.47
2022-12-20T14:57:53.209Z,9.48
2022-12-20T15:00:27.538Z,9.55
2022-12-20T15:03:00.829Z,9.58
2022-12-20T15:05:44.592Z,9.66
2022-12-20T15:07:49.480Z,9.67
2022-12-20T15:09:54.276Z,9.65
2022-12-20T15:11:58.088Z,9.68
2022-12-20T15:14:00.679Z,9.54
2022-12-20T15:16:24.138Z,9.43
2022-12-20T15:18:26.768Z,9.35
2022-12-20T15:20:28.425Z,9.33
2022-12-20T15:22:34.829Z,9.36
2022-12-20T15:24:39.755Z,9.39
2022-12-20T15:26:41.566Z,9.44
2022-12-20T15:28:43.171Z,9.42
2022-12-20T15:30:47.582Z,9.44
2022-12-20T15:32:55.669Z,9.42
2022-12-20T15:34:57.623Z,9.39
2022-12-20T15:37:00.295Z,9.40
2022-12-20T15:39:17.455Z,9.37
2022-12-20T15:41:24.116Z,9.39
2022-12-20T15:43:27.555Z,9.40
2022-12-20T15:45:31.043Z,9.41
2022-12-20T15:47:42.918Z,9.36
2022-12-20T15:49:50.501Z,9.36
2022-12-20T15:51:58.379Z,9.30
2022-12-20T15:54:04.786Z,9.27
2022-12-20T15:56:15.144Z,9.20
2022-12-20T15:58:16.980Z,9.21
2022-12-20T16:00:20.021Z,9.16
2022-12-20T16:02:27.623Z,9.17
2022-12-20T16:04:30.184Z,9.16
2022-12-20T16:06:34.225Z,9.15
2022-12-20T16:08:36.056Z,9.14
2022-12-20T16:10:37.813Z,9.14
2022-12-20T16:12:39.638Z,9.11
2022-12-20T16:14:50.342Z,9.14
2022-12-20T16:16:52.779Z,9.11
2022-12-20T16:18:54.882Z,9.09
2022-12-20T16:20:56.721Z,9.12
2022-12-20T16:22:58.652Z,9.09
2022-12-20T16:25:00.235Z,9.10
2022-12-20T16:27:01.732Z,9.08
2022-12-20T16:29:03.371Z,8.97
2022-12-20T16:31:32.273Z,9.05
2022-12-20T16:33:34.096Z,9.01
2022-12-20T16:35:37.342Z,8.97
2022-12-20T16:37:39.429Z,8.93
2022-12-20T16:39:44.116Z,8.91
2022-12-20T16:41:45.809Z,8.89
2022-12-20T16:43:49.026Z,8.87
2022-12-20T16:45:50.831Z,8.82
2022-12-20T16:47:53.216Z,8.82
2022-12-20T16:49:56.075Z,8.81
2022-12-20T16:51:57.942Z,8.79
2022-12-20T16:54:18.801Z,8.75
2022-12-20T16:56:21.724Z,8.73
2022-12-20T16:58:38.576Z,8.74
2022-12-20T17:00:46.175Z,8.74
2022-12-20T17:02:51.856Z,8.74
2022-12-20T17:04:56.260Z,8.79
2022-12-20T17:06:59.815Z,8.81
2022-12-20T17:11:23.917Z,8.78
2022-12-20T17:13:26.046Z,8.77
2022-12-20T17:15:30.094Z,8.79
2022-12-20T17:17:31.751Z,8.78
2022-12-20T17:19:33.693Z,8.77
2022-12-20T17:23:58.123Z,8.97
2022-12-20T17:25:59.717Z,8.92
2022-12-20T17:28:01.683Z,8.92
2022-12-20T17:30:03.487Z,8.87
2022-12-20T17:32:19.839Z,8.83
2022-12-20T17:34:27.501Z,8.79
2022-12-20T17:36:35.871Z,8.76
2022-12-20T17:38:39.631Z,8.72
2022-12-20T17:40:41.413Z,8.73
2022-12-20T17:42:42.975Z,8.72
2022-12-20T17:44:46.269Z,8.76
2022-12-20T17:46:48.674Z,8.74
2022-12-20T17:48:54.760Z,8.70
2022-12-20T17:50:56.662Z,8.68
2022-12-20T17:52:58.635Z,8.65
2022-12-20T17:55:00.301Z,8.65
2022-12-20T17:57:01.996Z,8.62
2022-12-20T17:59:07.079Z,8.57
2022-12-20T18:01:23.489Z,8.49
2022-12-20T18:04:01.601Z,8.47
2022-12-20T18:05:50.063Z,8.49
2022-12-20T18:08:00.705Z,8.55
2022-12-20T18:10:02.444Z,8.62
2022-12-20T18:12:05.509Z,8.60
2022-12-20T18:14:10.635Z,8.52
2022-12-20T18:16:14.329Z,8.50
2022-12-20T18:18:15.925Z,8.50
2022-12-20T18:20:17.784Z,8.55
2022-12-20T18:22:19.499Z,8.53
2022-12-20T18:24:21.899Z,8.50
2022-12-20T18:26:25.473Z,8.47
2022-12-20T18:28:27.094Z,8.49
2022-12-20T18:30:28.887Z,8.48
2022-12-20T18:32:30.518Z,8.46
2022-12-20T18:34:32.276Z,8.45
2022-12-20T18:36:36.879Z,8.47
2022-12-20T18:38:40.537Z,8.45
2022-12-20T18:40:45.797Z,8.44
2022-12-20T18:42:50.496Z,8.41
2022-12-20T18:44:52.062Z,8.36
2022-12-20T18:46:53.819Z,8.32
2022-12-20T18:49:00.340Z,8.28
2022-12-20T18:51:16.985Z,8.25
2022-12-20T18:53:19.716Z,8.27
2022-12-20T18:55:21.756Z,8.26
2022-12-20T18:57:23.309Z,8.26
2022-12-20T18:59:26.097Z,8.27
2022-12-20T19:01:32.232Z,8.26
2022-12-20T19:03:39.814Z,8.27
2022-12-20T19:05:41.587Z,8.24
2022-12-20T19:07:46.019Z,8.26
2022-12-20T19:09:47.561Z,8.21
2022-12-20T19:11:56.272Z,8.19
2022-12-20T19:13:58.647Z,8.21
2022-12-20T19:16:23.100Z,8.18
2022-12-20T19:18:24.634Z,8.16
2022-12-20T19:20:26.327Z,8.18
2022-12-20T19:22:28.092Z,8.20
2022-12-20T19:24:30.873Z,8.19
2022-12-20T19:26:35.604Z,8.17
2022-12-20T19:28:37.539Z,8.20
2022-12-20T19:30:39.547Z,8.23
2022-12-20T19:32:41.968Z,8.26
2022-12-20T19:34:43.563Z,8.22
2022-12-20T19:36:46.846Z,8.22
2022-12-20T19:38:51.089Z,8.29
2022-12-20T19:40:53.868Z,8.27
2022-12-20T19:42:55.608Z,8.28
2022-12-20T19:44:57.379Z,8.25
2022-12-20T19:47:05.281Z,8.28
2022-12-20T19:49:07.466Z,8.26
2022-12-20T19:51:15.550Z,8.25
2022-12-20T19:53:24.624Z,8.32
2022-12-20T19:55:28.190Z,8.28
2022-12-20T19:57:29.819Z,8.26
2022-12-20T19:59:40.744Z,8.22
2022-12-20T20:01:45.176Z,8.27
2022-12-20T20:03:46.970Z,8.30
2022-12-20T20:05:49.596Z,8.34
2022-12-20T20:07:51.898Z,8.29
2022-12-20T20:09:55.969Z,8.42
2022-12-20T20:11:58.032Z,8.40
2022-12-20T20:14:02.255Z,8.40
2022-12-20T20:16:06.154Z,8.46
2022-12-20T20:18:07.982Z,8.43
2022-12-20T20:20:12.409Z,8.42
2022-12-20T20:22:22.664Z,8.41
2022-12-20T20:24:24.700Z,8.42
2022-12-20T20:26:27.404Z,8.41
2022-12-20T20:28:33.108Z,8.41
2022-12-20T20:30:41.067Z,8.43
2022-12-20T20:32:43.153Z,8.40
2022-12-20T20:34:47.747Z,8.46
2022-12-20T20:36:52.932Z,8.43
2022-12-20T20:38:54.495Z,8.41
2022-12-20T20:40:57.271Z,8.40
2022-12-20T20:42:59.672Z,8.38
2022-12-20T20:45:01.243Z,8.38
2022-12-20T20:47:02.923Z,8.37
2022-12-20T20:49:04.503Z,8.42
2022-12-20T20:51:07.170Z,8.45
2022-12-20T20:53:09.011Z,8.45
2022-12-20T20:55:11.110Z,8.44
2022-12-20T20:57:13.007Z,8.47
2022-12-20T20:59:17.936Z,8.49
2022-12-20T21:01:19.668Z,8.43
2022-12-20T21:03:21.422Z,8.44
2022-12-20T21:07:45.788Z,8.48
2022-12-20T21:09:47.564Z,8.49
2022-12-20T21:11:49.508Z,8.53
2022-12-20T21:13:52.688Z,8.50
2022-12-20T21:15:54.449Z,8.50
2022-12-20T21:17:56.105Z,8.52
2022-12-20T21:19:57.776Z,8.50
2022-12-20T21:21:59.581Z,8.51
2022-12-20T21:24:01.120Z,8.49
2022-12-20T21:26:06.089Z,8.51
2022-12-20T21:28:08.273Z,8.48
2022-12-20T21:30:10.224Z,8.56
2022-12-20T21:32:11.951Z,8.52
2022-12-20T21:34:13.562Z,8.55
2022-12-20T21:36:16.916Z,8.52
2022-12-20T21:38:18.471Z,8.60
2022-12-20T21:40:20.035Z,8.53
2022-12-20T21:42:21.772Z,8.55
2022-12-20T21:44:23.840Z,8.55
2022-12-20T21:46:26.261Z,8.61
2022-12-20T21:48:29.716Z,8.59
2022-12-20T21:50:34.133Z,8.60
2022-12-20T21:52:35.819Z,8.59
2022-12-20T21:54:37.315Z,8.54
2022-12-20T21:56:38.835Z,8.53
2022-12-20T21:58:40.416Z,8.54
2022-12-20T22:00:42.897Z,8.55
2022-12-20T22:02:44.562Z,8.56
2022-12-20T22:04:49.203Z,8.55
2022-12-20T22:06:50.955Z,8.53
2022-12-20T22:08:52.512Z,8.50
2022-12-20T22:11:02.675Z,8.47
2022-12-20T22:13:04.620Z,8.49
2022-12-20T22:15:06.656Z,8.52
2022-12-20T22:17:08.533Z,8.49
2022-12-20T22:19:14.843Z,8.48
2022-12-20T22:21:17.877Z,8.47
2022-12-20T22:23:19.683Z,8.47
2022-12-20T22:25:21.246Z,8.52
2022-12-20T22:27:23.762Z,8.53
2022-12-20T22:29:25.386Z,8.54
2022-12-20T22:31:27.290Z,8.49
2022-12-20T22:33:28.962Z,8.50
2022-12-20T22:35:30.794Z,8.50
2022-12-20T22:37:32.227Z,8.50
2022-12-20T22:39:36.636Z,8.51
2022-12-20T22:41:38.268Z,8.48
2022-12-20T22:43:41.943Z,8.46
2022-12-20T22:45:43.644Z,8.47
2022-12-20T22:47:55.025Z,8.44
2022-12-20T22:49:56.738Z,8.43
2022-12-20T22:52:07.335Z,8.43
2022-12-20T22:54:09.640Z,8.43
2022-12-20T22:56:11.806Z,8.43
2022-12-20T22:58:13.511Z,8.45
2022-12-20T23:00:15.560Z,8.45
2022-12-20T23:02:17.544Z,8.45
2022-12-20T23:04:19.256Z,8.42
2022-12-20T23:06:21.783Z,8.39
2022-12-20T23:08:24.661Z,8.42
2022-12-20T23:10:44.706Z,8.40
2022-12-20T23:13:05.008Z,8.45
2022-12-20T23:15:30.099Z,8.41
2022-12-20T23:17:33.029Z,8.48
2022-12-20T23:19:54.029Z,8.44
2022-12-20T23:22:14.850Z,8.39
2022-12-20T23:24:16.617Z,8.32
2022-12-20T23:26:18.201Z,8.32
2022-12-20T23:28:19.686Z,8.33
2022-12-20T23:30:24.147Z,8.33
2022-12-20T23:32:25.820Z,8.35
2022-12-20T23:34:28.247Z,8.38
2022-12-20T23:36:30.194Z,8.36
2022-12-20T23:38:34.359Z,8.36
2022-12-20T23:40:36.011Z,8.40
2022-12-20T23:42:37.665Z,8.41
2022-12-20T23:44:39.436Z,8.41
2022-12-20T23:46:43.328Z,8.36
2022-12-20T23:48:45.940Z,8.35
2022-12-20T23:50:58.911Z,8.36
2022-12-20T23:53:06.164Z,8.38
2022-12-20T23:55:07.991Z,8.39
2022-12-20T23:57:14.245Z,8.38
2022-12-20T23:59:15.856Z,8.38
